createdAt,value
2022-12-28T00:00:51.093Z,4.40
2022-12-28T00:04:55.341Z,4.30
2022-12-28T00:08:58.439Z,4.20
2022-12-28T00:13:01.189Z,4.10
2022-12-28T00:17:03.929Z,4.40
2022-12-28T00:21:08.138Z,4.30
2022-12-28T00:25:11.399Z,4.30
2022-12-28T00:29:14.214Z,4.10
2022-12-28T00:33:16.999Z,4.30
2022-12-28T00:37:22.995Z,4.20
2022-12-28T00:41:25.969Z,4.20
2022-12-28T00:45:28.845Z,4.10
2022-12-28T00:49:31.646Z,4.40
2022-12-28T00:53:37.470Z,4.00
2022-12-28T00:57:41.305Z,4.10
2022-12-28T01:01:44.516Z,4.10
2022-12-28T01:05:47.432Z,4.20
2022-12-28T01:09:51.554Z,4.00
2022-12-28T01:13:55.894Z,4.10
2022-12-28T01:17:59.350Z,4.10
2022-12-28T01:22:03.137Z,3.90
2022-12-28T01:26:08.091Z,3.80
2022-12-28T01:30:14.054Z,3.70
2022-12-28T01:34:16.838Z,3.80
2022-12-28T01:38:22.270Z,3.40
2022-12-28T01:42:26.573Z,3.80
2022-12-28T01:46:36.041Z,3.60
2022-12-28T01:50:39.508Z,3.80
2022-12-28T01:54:46.772Z,3.50
2022-12-28T01:58:51.274Z,3.60
2022-12-28T02:02:58.769Z,3.80
2022-12-28T02:07:01.910Z,3.70
2022-12-28T02:11:06.253Z,3.60
2022-12-28T02:15:11.228Z,3.60
2022-12-28T02:19:19.901Z,3.60
2022-12-28T02:23:50.143Z,3.60
2022-12-28T02:28:02.085Z,3.70
2022-12-28T02:32:18.561Z,3.70
2022-12-28T02:36:23.425Z,3.80
2022-12-28T02:40:31.187Z,4.10
2022-12-28T02:44:54.286Z,3.70
2022-12-28T02:49:30.198Z,3.90
2022-12-28T02:53:52.148Z,3.90
2022-12-28T02:58:17.731Z,3.60
2022-12-28T03:02:35.281Z,3.50
2022-12-28T03:07:05.808Z,3.40
2022-12-28T03:11:12.057Z,3.30
2022-12-28T03:15:29.639Z,3.40
2022-12-28T03:19:55.417Z,3.40
2022-12-28T03:24:19.835Z,3.40
2022-12-28T03:28:44.131Z,3.30
2022-12-28T03:32:49.011Z,3.30
2022-12-28T03:36:59.488Z,3.40
2022-12-28T03:41:09.776Z,3.60
2022-12-28T03:45:46.312Z,3.60
2022-12-28T03:49:46.243Z,3.60
2022-12-28T03:53:49.411Z,3.60
2022-12-28T03:57:56.828Z,3.50
2022-12-28T04:02:03.935Z,3.60
2022-12-28T04:06:09.455Z,3.50
2022-12-28T04:10:13.288Z,3.50
2022-12-28T04:14:18.478Z,3.60
2022-12-28T04:18:21.271Z,3.50
2022-12-28T04:22:24.164Z,3.70
2022-12-28T04:26:27.059Z,3.60
2022-12-28T04:30:31.504Z,3.60
2022-12-28T04:34:34.315Z,3.60
2022-12-28T04:38:44.659Z,3.60
2022-12-28T04:42:47.437Z,3.70
2022-12-28T04:46:51.633Z,3.60
2022-12-28T04:50:55.652Z,3.60
2022-12-28T04:54:58.479Z,3.60
2022-12-28T04:59:02.024Z,3.80
2022-12-28T05:03:06.599Z,3.70
2022-12-28T05:07:10.129Z,3.70
2022-12-28T05:11:14.847Z,3.80
2022-12-28T05:15:17.753Z,3.90
2022-12-28T05:19:21.932Z,3.90
2022-12-28T05:23:24.715Z,3.90
2022-12-28T05:27:27.526Z,4.10
2022-12-28T05:31:30.367Z,4.10
2022-12-28T05:35:36.263Z,4.20
2022-12-28T05:39:39.027Z,4.10
2022-12-28T05:43:42.165Z,4.00
2022-12-28T05:47:44.893Z,4.00
2022-12-28T05:51:51.642Z,4.20
2022-12-28T05:55:54.417Z,4.10
2022-12-28T05:59:57.198Z,3.90
2022-12-28T06:04:02.024Z,4.00
2022-12-28T06:08:06.819Z,3.80
2022-12-28T06:12:09.599Z,4.00
2022-12-28T06:16:15.275Z,4.00
2022-12-28T06:20:18.147Z,4.20
2022-12-28T06:24:22.267Z,4.10
2022-12-28T06:28:25.072Z,4.10
2022-12-28T06:32:27.846Z,4.00
2022-12-28T06:36:32.596Z,3.80
2022-12-28T06:41:10.757Z,3.80
2022-12-28T06:44:59.486Z,3.80
2022-12-28T06:49:02.261Z,3.80
2022-12-28T06:53:05.097Z,3.70
2022-12-28T06:57:09.169Z,3.80
2022-12-28T07:01:15.070Z,3.80
2022-12-28T07:05:18.030Z,3.90
2022-12-28T07:09:21.044Z,3.90
2022-12-28T07:13:28.291Z,3.90
2022-12-28T07:17:32.575Z,3.90
2022-12-28T07:21:37.806Z,3.90
2022-12-28T07:25:40.617Z,4.00
2022-12-28T07:29:44.780Z,4.10
2022-12-28T07:33:48.466Z,4.00
2022-12-28T07:37:51.498Z,4.20
2022-12-28T07:41:54.290Z,4.10
2022-12-28T07:46:03.565Z,4.00
2022-12-28T07:50:07.167Z,3.90
2022-12-28T07:54:10.133Z,4.10
2022-12-28T07:58:12.935Z,4.10
2022-12-28T08:02:17.287Z,4.30
2022-12-28T08:06:23.044Z,4.30
2022-12-28T08:10:25.945Z,4.40
2022-12-28T08:14:29.954Z,4.40
2022-12-28T08:18:34.872Z,4.70
2022-12-28T08:22:37.674Z,4.50
2022-12-28T08:26:41.750Z,4.60
2022-12-28T08:30:44.631Z,4.70
2022-12-28T08:34:52.578Z,4.90
2022-12-28T08:38:55.841Z,5.00
2022-12-28T08:42:59.709Z,5.10
2022-12-28T08:47:02.674Z,5.10
2022-12-28T08:51:08.898Z,5.10
2022-12-28T08:55:11.719Z,5.20
2022-12-28T08:59:16.521Z,5.30
2022-12-28T09:03:19.359Z,5.50
2022-12-28T09:07:23.781Z,5.60
2022-12-28T09:11:27.072Z,5.70
2022-12-28T09:15:29.870Z,5.80
2022-12-28T09:19:32.714Z,6.00
2022-12-28T09:23:37.534Z,6.20
2022-12-28T09:27:40.338Z,6.50
2022-12-28T09:31:44.274Z,6.70
2022-12-28T09:35:47.143Z,6.90
2022-12-28T09:39:51.253Z,7.00
2022-12-28T09:43:58.006Z,7.20
2022-12-28T09:48:07.520Z,7.60
2022-12-28T09:52:26.085Z,9.00
2022-12-28T09:56:35.820Z,9.70
2022-12-28T10:00:44.147Z,9.80
2022-12-28T10:04:49.656Z,9.80
2022-12-28T10:08:55.405Z,9.70
2022-12-28T10:13:06.723Z,9.70
2022-12-28T10:17:14.337Z,9.50
2022-12-28T10:21:19.865Z,9.40
2022-12-28T10:25:24.770Z,9.30
2022-12-28T10:29:32.312Z,9.10
2022-12-28T10:33:39.646Z,9.00
2022-12-28T10:37:45.491Z,8.90
2022-12-28T10:41:49.556Z,8.90
2022-12-28T10:45:53.862Z,9.20
2022-12-28T10:50:35.492Z,9.50
2022-12-28T10:54:28.256Z,9.80
2022-12-28T10:58:34.549Z,10.10
2022-12-28T11:02:38.873Z,10.80
2022-12-28T11:06:53.105Z,11.50
2022-12-28T11:10:57.994Z,11.90
2022-12-28T11:15:00.821Z,12.20
2022-12-28T11:19:05.944Z,12.10
2022-12-28T11:23:10.080Z,12.10
2022-12-28T11:27:16.942Z,12.20
2022-12-28T11:31:28.109Z,12.30
2022-12-28T11:35:34.839Z,12.20
2022-12-28T11:39:46.273Z,12.00
2022-12-28T11:43:51.544Z,12.00
2022-12-28T11:48:31.954Z,12.10
2022-12-28T11:52:51.103Z,12.30
2022-12-28T11:57:00.287Z,12.40
2022-12-28T12:01:03.423Z,12.40
2022-12-28T12:05:39.529Z,12.60
2022-12-28T12:09:47.531Z,12.90
2022-12-28T12:13:51.526Z,13.60
2022-12-28T12:17:59.922Z,14.00
2022-12-28T12:22:06.224Z,14.50
2022-12-28T12:26:18.716Z,14.90
2022-12-28T12:30:23.076Z,14.90
2022-12-28T12:34:34.255Z,15.10
2022-12-28T12:38:53.623Z,15.10
2022-12-28T12:43:22.573Z,15.10
2022-12-28T12:47:49.605Z,15.40
2022-12-28T12:52:01.679Z,15.80
2022-12-28T12:56:13.684Z,16.20
2022-12-28T13:00:19.966Z,16.00
2022-12-28T13:04:25.215Z,15.90
2022-12-28T13:08:33.061Z,15.50
2022-12-28T13:12:37.396Z,15.50
2022-12-28T13:16:41.618Z,15.20
2022-12-28T13:20:54.091Z,14.90
2022-12-28T13:24:58.962Z,14.80
2022-12-28T13:29:03.990Z,15.00
2022-12-28T13:33:27.080Z,14.80
2022-12-28T13:37:30.636Z,14.80
2022-12-28T13:41:35.885Z,14.20
2022-12-28T13:45:39.069Z,13.80
2022-12-28T13:49:47.317Z,13.40
2022-12-28T13:53:53.932Z,13.10
2022-12-28T13:58:00.188Z,12.90
2022-12-28T14:02:05.195Z,12.70
2022-12-28T14:06:10.807Z,12.50
2022-12-28T14:10:14.501Z,12.40
2022-12-28T14:14:17.817Z,12.00
2022-12-28T14:18:20.871Z,11.90
2022-12-28T14:22:31.183Z,11.90
2022-12-28T14:26:35.135Z,11.70
2022-12-28T14:30:41.421Z,11.60
2022-12-28T14:34:44.283Z,11.80
2022-12-28T14:38:51.104Z,11.80
2022-12-28T14:42:55.896Z,11.90
2022-12-28T14:46:59.416Z,11.80
2022-12-28T14:51:04.136Z,11.80
2022-12-28T14:55:28.487Z,11.70
2022-12-28T14:59:35.520Z,11.50
2022-12-28T15:03:53.157Z,11.50
2022-12-28T15:07:55.961Z,11.00
2022-12-28T15:12:10.731Z,11.00
2022-12-28T15:16:14.678Z,10.90
2022-12-28T15:20:18.010Z,10.80
2022-12-28T15:24:23.651Z,10.80
2022-12-28T15:28:29.416Z,10.60
2022-12-28T15:32:32.243Z,10.30
2022-12-28T15:36:34.974Z,10.10
2022-12-28T15:40:40.048Z,10.10
2022-12-28T15:44:46.162Z,10.00
2022-12-28T15:48:49.003Z,9.70
2022-12-28T15:52:51.850Z,9.50
2022-12-28T15:56:55.954Z,9.60
2022-12-28T16:01:01.333Z,9.50
2022-12-28T16:05:10.528Z,9.30
2022-12-28T16:09:14.257Z,9.10
2022-12-28T16:13:17.020Z,9.00
2022-12-28T16:17:21.152Z,8.80
2022-12-28T16:21:25.047Z,8.80
2022-12-28T16:25:27.820Z,8.60
2022-12-28T16:29:30.663Z,8.60
2022-12-28T16:33:34.945Z,8.60
2022-12-28T16:37:37.748Z,8.60
2022-12-28T16:41:40.595Z,8.50
2022-12-28T16:45:45.074Z,8.40
2022-12-28T16:49:49.276Z,8.30
2022-12-28T16:53:52.154Z,8.40
2022-12-28T16:57:55.022Z,8.30
2022-12-28T17:01:59.098Z,8.20
2022-12-28T17:06:03.868Z,8.10
2022-12-28T17:10:07.939Z,8.00
2022-12-28T17:14:13.058Z,7.90
2022-12-28T17:18:16.156Z,8.00
2022-12-28T17:22:20.342Z,8.10
2022-12-28T17:26:23.514Z,7.80
2022-12-28T17:30:26.497Z,7.90
2022-12-28T17:34:29.297Z,7.80
2022-12-28T17:38:33.470Z,7.80
2022-12-28T17:42:36.273Z,7.80
2022-12-28T17:46:41.372Z,7.70
2022-12-28T17:50:45.035Z,7.60
2022-12-28T17:54:49.322Z,7.50
2022-12-28T17:58:56.237Z,7.50
2022-12-28T18:02:59.230Z,7.50
2022-12-28T18:07:02.434Z,7.60
2022-12-28T18:11:08.559Z,7.40
2022-12-28T18:15:11.971Z,7.30
2022-12-28T18:19:14.880Z,7.40
2022-12-28T18:23:17.679Z,7.30
2022-12-28T18:27:21.846Z,7.20
2022-12-28T18:31:25.568Z,7.20
2022-12-28T18:35:28.445Z,7.20
2022-12-28T18:39:31.246Z,7.30
2022-12-28T18:43:35.425Z,7.30
2022-12-28T18:47:38.426Z,7.30
2022-12-28T18:51:41.254Z,7.40
2022-12-28T18:55:45.583Z,7.40
2022-12-28T18:59:49.967Z,7.40
2022-12-28T19:03:56.207Z,7.20
2022-12-28T19:07:59.139Z,7.20
2022-12-28T19:12:02.467Z,7.10
2022-12-28T19:16:09.411Z,7.30
2022-12-28T19:20:12.519Z,7.20
2022-12-28T19:24:16.965Z,7.10
2022-12-28T19:28:19.770Z,7.00
2022-12-28T19:32:23.936Z,7.00
2022-12-28T19:36:26.925Z,7.20
2022-12-28T19:40:29.731Z,6.90
2022-12-28T19:44:32.503Z,6.90
2022-12-28T19:48:36.742Z,7.10
2022-12-28T19:52:39.532Z,7.10
2022-12-28T19:56:42.527Z,6.90
2022-12-28T20:00:45.318Z,6.90
2022-12-28T20:04:49.530Z,7.00
2022-12-28T20:08:54.120Z,7.30
2022-12-28T20:12:57.256Z,7.00
2022-12-28T20:17:00.115Z,7.00
2022-12-28T20:21:21.973Z,7.10
2022-12-28T20:25:24.939Z,7.00
2022-12-28T20:29:27.694Z,7.00
2022-12-28T20:33:31.819Z,7.20
2022-12-28T20:37:36.487Z,7.10
2022-12-28T20:41:56.628Z,7.00
2022-12-28T20:45:59.701Z,7.30
2022-12-28T20:50:03.873Z,7.00
2022-12-28T20:54:09.644Z,7.20
2022-12-28T20:58:12.714Z,7.30
2022-12-28T21:02:15.552Z,7.10
2022-12-28T21:06:18.342Z,7.10
2022-12-28T21:10:22.593Z,7.00
2022-12-28T21:14:25.302Z,7.00
2022-12-28T21:18:28.002Z,7.10
2022-12-28T21:22:30.820Z,7.10
2022-12-28T21:26:34.933Z,7.20
2022-12-28T21:30:37.654Z,7.10
2022-12-28T21:34:40.362Z,7.10
2022-12-28T21:38:44.212Z,7.20
2022-12-28T21:42:48.340Z,7.30
2022-12-28T21:46:52.265Z,7.20
2022-12-28T21:50:55.301Z,7.10
2022-12-28T21:54:58.017Z,7.00
2022-12-28T21:59:02.655Z,6.90
2022-12-28T22:03:23.031Z,7.10
2022-12-28T22:07:26.087Z,7.10
2022-12-28T22:11:46.423Z,7.00
2022-12-28T22:15:53.552Z,6.90
2022-12-28T22:19:56.369Z,6.90
2022-12-28T22:23:59.189Z,6.60
2022-12-28T22:28:02.143Z,6.50
2022-12-28T22:32:06.822Z,6.80
2022-12-28T22:36:13.899Z,6.60
2022-12-28T22:40:17.496Z,6.60
2022-12-28T22:44:20.308Z,6.60
2022-12-28T22:48:24.495Z,6.70
2022-12-28T22:52:28.993Z,6.70
2022-12-28T22:56:31.805Z,6.70
2022-12-28T23:00:34.576Z,6.40
2022-12-28T23:04:38.692Z,6.50
2022-12-28T23:08:41.838Z,6.60
2022-12-28T23:12:44.615Z,6.70
2022-12-28T23:16:47.679Z,6.60
2022-12-28T23:21:09.528Z,6.60
2022-12-28T23:25:32.903Z,6.70
2022-12-28T23:29:35.723Z,6.60
2022-12-28T23:33:38.624Z,6.60
2022-12-28T23:37:42.834Z,6.60
2022-12-28T23:41:51.462Z,6.80
2022-12-28T23:45:54.324Z,6.50
2022-12-28T23:49:57.184Z,6.30
2022-12-28T23:54:01.378Z,6.60
2022-12-28T23:58:04.599Z,6.50
